createdAt,value
2022-07-29T00:01:46.328Z,60.22
2022-07-29T00:04:14.965Z,60.37
2022-07-29T00:06:43.388Z,60.30
2022-07-29T00:09:11.488Z,60.45
2022-07-29T00:11:39.627Z,60.60
2022-07-29T00:14:07.827Z,60.67
2022-07-29T00:16:36.427Z,60.75
2022-07-29T00:19:05.323Z,61.02
2022-07-29T00:21:35.143Z,60.76
2022-07-29T00:24:03.386Z,60.52
2022-07-29T00:26:32.865Z,61.50
2022-07-29T00:29:31.938Z,61.34
2022-07-29T00:31:49.611Z,61.28
2022-07-29T00:34:36.013Z,61.81
2022-07-29T00:37:04.154Z,61.53
2022-07-29T00:39:32.553Z,61.51
2022-07-29T00:42:03.944Z,61.79
2022-07-29T00:44:36.425Z,66.73
2022-07-29T00:47:05.020Z,67.10
2022-07-29T00:49:34.359Z,60.35
2022-07-29T00:52:03.085Z,56.67
2022-07-29T00:54:31.458Z,56.55
2022-07-29T00:57:00.015Z,56.64
2022-07-29T00:59:34.819Z,57.21
2022-07-29T01:02:04.285Z,57.80
2022-07-29T01:04:33.450Z,58.31
2022-07-29T01:07:02.716Z,58.86
2022-07-29T01:09:42.159Z,59.16
2022-07-29T01:12:15.922Z,59.24
2022-07-29T01:14:45.331Z,59.60
2022-07-29T01:17:18.478Z,59.74
2022-07-29T01:20:01.557Z,59.81
2022-07-29T01:22:54.479Z,59.81
2022-07-29T01:25:46.391Z,59.96
2022-07-29T01:28:50.486Z,60.12
2022-07-29T01:31:26.613Z,60.28
2022-07-29T01:34:02.198Z,60.13
2022-07-29T01:36:34.589Z,60.41
2022-07-29T01:39:09.278Z,60.39
2022-07-29T01:41:44.967Z,60.22
2022-07-29T01:44:19.470Z,60.31
2022-07-29T01:46:56.504Z,60.65
2022-07-29T01:49:28.747Z,60.46
2022-07-29T01:52:01.247Z,60.51
2022-07-29T01:54:36.130Z,60.51
2022-07-29T01:57:07.650Z,60.46
2022-07-29T01:59:38.038Z,60.58
2022-07-29T02:02:09.011Z,60.38
2022-07-29T02:04:38.859Z,60.30
2022-07-29T02:07:10.863Z,60.44
2022-07-29T02:09:40.151Z,60.35
2022-07-29T02:12:10.573Z,60.30
2022-07-29T02:14:43.138Z,60.13
2022-07-29T02:17:12.961Z,60.14
2022-07-29T02:19:42.800Z,60.17
2022-07-29T02:22:12.687Z,60.23
2022-07-29T02:24:42.607Z,60.15
2022-07-29T02:27:12.633Z,60.12
2022-07-29T02:29:41.379Z,60.16
2022-07-29T02:32:11.801Z,60.02
2022-07-29T02:34:42.205Z,60.08
2022-07-29T02:37:10.873Z,60.03
2022-07-29T02:39:42.870Z,60.06
2022-07-29T02:42:14.016Z,59.91
2022-07-29T02:44:42.732Z,59.76
2022-07-29T02:47:24.394Z,59.87
2022-07-29T02:50:00.652Z,59.95
2022-07-29T02:52:40.509Z,60.14
2022-07-29T02:55:15.822Z,60.22
2022-07-29T02:57:53.876Z,60.16
2022-07-29T03:00:27.696Z,60.23
2022-07-29T03:02:59.137Z,60.27
2022-07-29T03:05:26.748Z,60.46
2022-07-29T03:07:58.237Z,60.18
2022-07-29T03:10:27.080Z,60.15
2022-07-29T03:12:56.083Z,60.11
2022-07-29T03:15:24.921Z,60.16
2022-07-29T03:17:55.846Z,60.24
2022-07-29T03:20:24.478Z,60.25
2022-07-29T03:22:52.761Z,60.30
2022-07-29T03:25:21.666Z,60.25
2022-07-29T03:27:50.109Z,60.30
2022-07-29T03:30:21.564Z,60.14
2022-07-29T03:32:52.118Z,60.01
2022-07-29T03:35:20.801Z,60.04
2022-07-29T03:37:49.421Z,60.13
2022-07-29T03:40:22.693Z,59.80
2022-07-29T03:42:54.555Z,59.67
2022-07-29T03:45:23.744Z,59.60
2022-07-29T03:48:00.348Z,59.23
2022-07-29T03:50:30.888Z,59.18
2022-07-29T03:52:59.492Z,59.19
2022-07-29T03:55:29.591Z,58.85
2022-07-29T03:57:58.799Z,58.83
2022-07-29T04:00:27.820Z,58.58
2022-07-29T04:02:56.456Z,58.61
2022-07-29T04:05:24.739Z,58.50
2022-07-29T04:07:52.896Z,58.25
2022-07-29T04:10:30.528Z,58.34
2022-07-29T04:13:00.591Z,58.27
2022-07-29T04:15:31.879Z,58.37
2022-07-29T04:18:00.519Z,57.82
2022-07-29T04:20:28.922Z,56.52
2022-07-29T04:22:57.069Z,55.06
2022-07-29T04:25:25.192Z,53.10
2022-07-29T04:28:02.613Z,52.69
2022-07-29T04:30:31.849Z,51.80
2022-07-29T04:33:01.121Z,50.35
2022-07-29T04:35:29.412Z,50.05
2022-07-29T04:37:57.618Z,50.24
2022-07-29T04:40:25.668Z,51.17
2022-07-29T04:42:54.020Z,51.74
2022-07-29T04:45:22.920Z,51.50
2022-07-29T04:47:51.203Z,50.83
2022-07-29T04:50:19.312Z,49.88
2022-07-29T04:52:47.463Z,48.75
2022-07-29T04:55:15.578Z,47.05
2022-07-29T04:57:43.630Z,46.97
2022-07-29T05:00:13.388Z,43.65
2022-07-29T05:02:41.631Z,44.21
2022-07-29T05:05:10.077Z,44.50
2022-07-29T05:07:38.310Z,44.53
2022-07-29T05:10:08.130Z,42.95
2022-07-29T05:12:36.277Z,43.29
2022-07-29T05:15:06.132Z,42.16
2022-07-29T05:17:34.217Z,42.13
2022-07-29T05:20:02.643Z,41.06
2022-07-29T05:22:30.751Z,40.13
2022-07-29T05:24:58.912Z,40.21
2022-07-29T05:27:27.224Z,40.02
2022-07-29T05:29:55.304Z,40.07
2022-07-29T05:32:23.441Z,39.31
2022-07-29T05:34:51.971Z,39.23
2022-07-29T05:37:20.837Z,38.41
2022-07-29T05:39:56.405Z,37.45
2022-07-29T05:42:25.939Z,37.16
2022-07-29T05:44:54.273Z,36.05
2022-07-29T05:47:22.618Z,35.35
2022-07-29T05:49:51.206Z,35.97
2022-07-29T05:52:19.555Z,37.12
2022-07-29T05:54:47.987Z,35.69
2022-07-29T05:57:20.307Z,35.18
2022-07-29T05:59:49.233Z,35.62
2022-07-29T06:02:18.063Z,36.20
2022-07-29T06:04:46.134Z,36.37
2022-07-29T06:07:14.228Z,36.59
2022-07-29T06:09:42.514Z,37.23
2022-07-29T06:12:10.708Z,38.55
2022-07-29T06:14:38.831Z,39.78
2022-07-29T06:17:07.212Z,40.07
2022-07-29T06:19:36.527Z,39.82
2022-07-29T06:22:04.959Z,39.97
2022-07-29T06:24:33.099Z,40.24
2022-07-29T06:27:01.148Z,40.17
2022-07-29T06:29:29.262Z,40.62
2022-07-29T06:31:57.449Z,41.00
2022-07-29T06:34:25.931Z,40.92
2022-07-29T06:36:54.743Z,41.86
2022-07-29T06:39:23.222Z,42.66
2022-07-29T06:41:51.816Z,42.95
2022-07-29T06:44:20.197Z,43.01
2022-07-29T06:46:50.215Z,43.18
2022-07-29T06:49:18.487Z,43.28
2022-07-29T06:51:46.850Z,42.88
2022-07-29T06:54:15.449Z,41.42
2022-07-29T06:56:44.058Z,41.68
2022-07-29T06:59:13.101Z,42.20
2022-07-29T07:01:42.749Z,42.40
2022-07-29T07:04:12.341Z,42.49
2022-07-29T07:06:41.164Z,42.51
2022-07-29T07:09:09.537Z,42.93
2022-07-29T07:11:37.657Z,42.89
2022-07-29T07:14:05.899Z,40.74
2022-07-29T07:16:34.183Z,39.94
2022-07-29T07:19:02.517Z,39.98
2022-07-29T07:21:31.151Z,38.63
2022-07-29T07:24:00.244Z,38.09
2022-07-29T07:26:28.977Z,37.71
2022-07-29T07:28:58.408Z,37.76
2022-07-29T07:31:26.577Z,37.61
2022-07-29T07:33:54.773Z,37.88
2022-07-29T07:36:23.946Z,38.27
2022-07-29T07:38:52.115Z,39.26
2022-07-29T07:41:21.629Z,40.65
2022-07-29T07:43:49.795Z,41.63
2022-07-29T07:46:17.905Z,42.16
2022-07-29T07:48:46.156Z,42.93
2022-07-29T07:51:14.496Z,43.45
2022-07-29T07:53:42.576Z,43.95
2022-07-29T07:56:12.254Z,44.47
2022-07-29T07:58:41.241Z,44.24
2022-07-29T08:01:09.837Z,44.06
2022-07-29T08:03:38.223Z,44.81
2022-07-29T08:06:06.630Z,44.69
2022-07-29T08:08:34.807Z,44.76
2022-07-29T08:11:08.544Z,44.85
2022-07-29T08:13:38.539Z,45.41
2022-07-29T08:16:13.600Z,45.34
2022-07-29T08:18:43.617Z,45.44
2022-07-29T08:21:14.774Z,46.05
2022-07-29T08:23:53.135Z,45.67
2022-07-29T08:26:26.067Z,44.84
2022-07-29T08:28:54.230Z,44.86
2022-07-29T08:31:22.466Z,45.54
2022-07-29T08:33:50.873Z,45.23
2022-07-29T08:36:21.182Z,44.40
2022-07-29T08:38:50.018Z,44.03
2022-07-29T08:41:19.314Z,44.36
2022-07-29T08:43:47.663Z,45.33
2022-07-29T08:46:17.518Z,44.73
2022-07-29T08:48:46.212Z,44.95
2022-07-29T08:51:16.579Z,45.18
2022-07-29T08:53:47.699Z,45.45
2022-07-29T08:56:17.587Z,45.55
2022-07-29T08:58:51.885Z,46.05
2022-07-29T09:01:35.911Z,45.89
2022-07-29T09:04:10.884Z,45.46
2022-07-29T09:06:42.951Z,45.11
2022-07-29T09:09:12.238Z,45.35
2022-07-29T09:11:41.529Z,45.70
2022-07-29T09:14:11.600Z,45.04
2022-07-29T09:16:53.219Z,45.42
2022-07-29T09:19:24.392Z,45.02
2022-07-29T09:21:58.961Z,44.64
2022-07-29T09:24:37.612Z,44.33
2022-07-29T09:27:10.497Z,44.63
2022-07-29T09:29:38.987Z,44.56
2022-07-29T09:32:11.130Z,45.05
2022-07-29T09:34:39.344Z,44.56
2022-07-29T09:37:07.512Z,44.05
2022-07-29T09:39:38.178Z,43.99
2022-07-29T09:42:07.610Z,43.79
2022-07-29T09:44:50.285Z,44.54
2022-07-29T09:47:21.975Z,45.10
2022-07-29T09:49:58.109Z,45.19
2022-07-29T09:52:28.702Z,44.78
2022-07-29T09:55:07.087Z,43.95
2022-07-29T09:57:35.423Z,43.97
2022-07-29T10:00:08.735Z,44.19
2022-07-29T10:02:44.341Z,44.62
2022-07-29T10:05:21.101Z,45.12
2022-07-29T10:07:53.900Z,44.50
2022-07-29T10:10:24.161Z,44.71
2022-07-29T10:12:54.915Z,44.20
2022-07-29T10:15:24.659Z,44.21
2022-07-29T10:17:54.276Z,44.02
2022-07-29T10:20:22.953Z,43.98
2022-07-29T10:22:53.806Z,44.71
2022-07-29T10:25:22.823Z,45.02
2022-07-29T10:27:51.807Z,44.15
2022-07-29T10:30:21.452Z,43.72
2022-07-29T10:33:14.684Z,43.14
2022-07-29T10:35:59.541Z,43.61
2022-07-29T10:38:45.915Z,43.93
2022-07-29T10:41:32.009Z,44.26
2022-07-29T10:44:02.913Z,44.54
2022-07-29T10:46:36.569Z,44.20
2022-07-29T10:49:09.594Z,44.37
2022-07-29T10:51:55.265Z,43.97
2022-07-29T10:54:43.978Z,42.90
2022-07-29T10:57:54.243Z,43.07
2022-07-29T11:00:31.749Z,43.04
2022-07-29T11:03:01.336Z,43.18
2022-07-29T11:05:53.192Z,43.33
2022-07-29T11:08:26.343Z,43.72
2022-07-29T11:11:36.957Z,44.00
2022-07-29T11:14:05.529Z,44.32
2022-07-29T11:17:06.099Z,44.40
2022-07-29T11:19:40.393Z,44.34
2022-07-29T11:22:31.735Z,44.30
2022-07-29T11:25:14.738Z,43.92
2022-07-29T11:27:45.773Z,44.06
2022-07-29T11:30:14.564Z,44.22
2022-07-29T11:32:44.671Z,43.65
2022-07-29T11:35:18.868Z,43.05
2022-07-29T11:37:52.678Z,44.01
2022-07-29T11:40:24.170Z,43.75
2022-07-29T11:42:52.692Z,44.04
2022-07-29T11:45:41.354Z,43.40
2022-07-29T11:48:28.774Z,43.86
2022-07-29T11:51:00.698Z,43.99
2022-07-29T11:53:33.060Z,43.56
2022-07-29T11:56:02.671Z,43.71
2022-07-29T11:58:31.901Z,44.28
2022-07-29T12:01:04.669Z,44.68
2022-07-29T12:03:36.408Z,43.66
2022-07-29T12:06:13.840Z,44.09
2022-07-29T12:08:44.607Z,43.77
2022-07-29T12:11:21.789Z,43.88
2022-07-29T12:13:50.947Z,43.98
2022-07-29T12:16:25.484Z,43.96
2022-07-29T12:19:00.690Z,44.53
2022-07-29T12:21:56.966Z,44.48
2022-07-29T12:24:43.045Z,44.68
2022-07-29T12:27:17.504Z,45.06
2022-07-29T12:29:48.855Z,44.72
2022-07-29T12:32:19.817Z,44.19
2022-07-29T12:34:48.526Z,43.95
2022-07-29T12:37:17.102Z,43.10
2022-07-29T12:39:45.701Z,42.99
2022-07-29T12:42:18.285Z,42.90
2022-07-29T12:44:48.432Z,42.35
2022-07-29T12:47:18.363Z,42.64
2022-07-29T12:49:47.379Z,42.84
2022-07-29T12:52:30.159Z,42.46
2022-07-29T12:54:59.189Z,42.37
2022-07-29T12:57:27.525Z,42.98
2022-07-29T13:00:08.701Z,43.14
2022-07-29T13:02:37.538Z,43.35
2022-07-29T13:05:08.495Z,43.40
2022-07-29T13:07:54.311Z,43.92
2022-07-29T13:10:42.275Z,44.32
2022-07-29T13:13:12.309Z,44.07
2022-07-29T13:15:42.422Z,43.71
2022-07-29T13:18:28.564Z,43.44
2022-07-29T13:20:57.671Z,43.27
2022-07-29T13:23:25.757Z,43.43
2022-07-29T13:25:54.011Z,43.79
2022-07-29T13:28:23.651Z,43.89
2022-07-29T13:30:51.947Z,44.23
2022-07-29T13:33:20.116Z,44.18
2022-07-29T13:35:48.205Z,44.48
2022-07-29T13:38:16.560Z,44.62
2022-07-29T13:40:44.876Z,44.14
2022-07-29T13:43:13.260Z,44.10
2022-07-29T13:45:41.509Z,44.38
2022-07-29T13:48:09.807Z,44.57
2022-07-29T13:50:38.060Z,44.99
2022-07-29T13:53:06.198Z,45.24
2022-07-29T13:55:34.879Z,45.05
2022-07-29T13:58:03.069Z,44.71
2022-07-29T14:00:35.109Z,44.75
2022-07-29T14:03:03.586Z,44.95
2022-07-29T14:05:31.830Z,44.66
2022-07-29T14:08:00.462Z,44.26
2022-07-29T14:10:28.621Z,44.30
2022-07-29T14:12:56.691Z,44.95
2022-07-29T14:15:25.221Z,45.04
2022-07-29T14:17:53.265Z,44.63
2022-07-29T14:20:21.367Z,45.15
2022-07-29T14:22:49.557Z,45.39
2022-07-29T14:25:18.451Z,45.03
2022-07-29T14:27:49.364Z,44.93
2022-07-29T14:30:17.789Z,44.98
2022-07-29T14:32:45.914Z,45.29
2022-07-29T14:35:14.318Z,45.17
2022-07-29T14:37:42.873Z,45.24
2022-07-29T14:40:12.296Z,45.67
2022-07-29T14:42:40.852Z,45.30
2022-07-29T14:45:10.171Z,44.99
2022-07-29T14:47:38.726Z,44.41
2022-07-29T14:50:08.799Z,44.70
2022-07-29T14:52:37.784Z,44.66
2022-07-29T14:55:16.432Z,44.19
2022-07-29T14:57:48.743Z,44.51
2022-07-29T15:00:17.758Z,44.48
2022-07-29T15:03:01.251Z,44.49
2022-07-29T15:05:30.785Z,44.71
2022-07-29T15:07:59.225Z,44.33
2022-07-29T15:10:27.674Z,44.37
2022-07-29T15:12:55.861Z,44.83
2022-07-29T15:15:24.464Z,45.08
2022-07-29T15:17:52.574Z,45.08
2022-07-29T15:20:21.658Z,45.10
2022-07-29T15:22:49.953Z,44.98
2022-07-29T15:25:18.149Z,44.62
2022-07-29T15:27:49.003Z,44.57
2022-07-29T15:30:32.823Z,45.02
2022-07-29T15:33:01.097Z,45.10
2022-07-29T15:35:29.332Z,45.12
2022-07-29T15:37:57.489Z,45.11
2022-07-29T15:40:25.618Z,44.80
2022-07-29T15:42:54.010Z,44.54
2022-07-29T15:45:22.529Z,44.82
2022-07-29T15:47:50.580Z,44.98
2022-07-29T15:50:19.445Z,44.87
2022-07-29T15:52:47.501Z,44.73
2022-07-29T15:55:15.747Z,44.32
2022-07-29T15:57:43.831Z,44.73
2022-07-29T16:00:13.728Z,44.90
2022-07-29T16:02:41.798Z,45.22
2022-07-29T16:05:10.318Z,45.69
2022-07-29T16:07:38.387Z,45.94
2022-07-29T16:10:07.453Z,46.40
2022-07-29T16:12:35.719Z,46.73
2022-07-29T16:15:09.410Z,47.02
2022-07-29T16:17:38.840Z,47.27
2022-07-29T16:20:09.238Z,47.22
2022-07-29T16:22:38.682Z,47.20
2022-07-29T16:25:08.950Z,47.21
2022-07-29T16:27:38.267Z,47.08
2022-07-29T16:30:09.217Z,47.16
2022-07-29T16:32:36.565Z,47.10
2022-07-29T16:35:06.078Z,47.29
2022-07-29T16:37:36.425Z,47.58
2022-07-29T16:40:06.732Z,47.92
2022-07-29T16:42:49.171Z,47.88
2022-07-29T16:45:19.865Z,48.07
2022-07-29T16:47:50.226Z,48.33
2022-07-29T16:50:18.409Z,48.33
2022-07-29T16:52:46.587Z,48.56
2022-07-29T16:55:14.917Z,48.66
2022-07-29T16:57:43.192Z,48.74
2022-07-29T17:00:13.757Z,49.01
2022-07-29T17:02:41.827Z,49.28
2022-07-29T17:05:11.607Z,49.55
2022-07-29T17:07:39.795Z,49.55
2022-07-29T17:10:10.311Z,49.54
2022-07-29T17:12:40.097Z,49.94
2022-07-29T17:15:12.117Z,50.08
2022-07-29T17:17:55.390Z,50.09
2022-07-29T17:20:26.254Z,50.17
2022-07-29T17:22:54.661Z,50.61
2022-07-29T17:25:22.975Z,51.01
2022-07-29T17:27:51.012Z,51.47
2022-07-29T17:30:19.271Z,52.28
2022-07-29T17:32:47.481Z,52.15
2022-07-29T17:35:33.570Z,52.86
2022-07-29T17:38:01.693Z,54.65
2022-07-29T17:40:29.797Z,59.95
2022-07-29T17:42:57.835Z,60.70
2022-07-29T17:45:26.011Z,61.18
2022-07-29T17:47:54.035Z,62.98
2022-07-29T17:50:22.127Z,59.02
2022-07-29T17:52:50.244Z,58.89
2022-07-29T17:55:18.707Z,61.30
2022-07-29T17:57:47.036Z,68.85
2022-07-29T18:00:17.799Z,69.60
2022-07-29T18:02:46.058Z,65.45
2022-07-29T18:05:14.576Z,63.63
2022-07-29T18:07:42.677Z,61.74
2022-07-29T18:10:11.189Z,58.96
2022-07-29T18:12:39.258Z,57.67
2022-07-29T18:15:08.575Z,60.69
2022-07-29T18:17:56.635Z,64.06
2022-07-29T18:20:25.157Z,65.01
2022-07-29T18:22:53.975Z,62.50
2022-07-29T18:25:23.003Z,59.02
2022-07-29T18:27:51.536Z,57.26
2022-07-29T18:30:19.948Z,57.67
2022-07-29T18:33:18.099Z,59.85
2022-07-29T18:35:36.998Z,63.36
2022-07-29T18:38:05.397Z,64.41
2022-07-29T18:40:33.775Z,63.10
2022-07-29T18:43:01.973Z,61.11
2022-07-29T18:45:30.064Z,57.87
2022-07-29T18:48:01.410Z,57.10
2022-07-29T18:50:30.016Z,60.08
2022-07-29T18:53:00.488Z,64.26
2022-07-29T18:55:28.655Z,66.90
2022-07-29T18:57:57.520Z,61.84
2022-07-29T19:00:26.411Z,58.34
2022-07-29T19:02:54.839Z,59.50
2022-07-29T19:05:23.398Z,62.13
2022-07-29T19:07:51.619Z,64.23
2022-07-29T19:10:19.891Z,63.78
2022-07-29T19:12:48.090Z,63.72
2022-07-29T19:15:20.486Z,62.88
2022-07-29T19:17:48.908Z,61.80
2022-07-29T19:20:17.232Z,61.13
2022-07-29T19:22:45.355Z,57.80
2022-07-29T19:25:13.601Z,58.38
2022-07-29T19:27:43.242Z,60.45
2022-07-29T19:30:12.530Z,65.63
2022-07-29T19:32:40.722Z,65.90
2022-07-29T19:35:24.474Z,64.21
2022-07-29T19:37:53.996Z,62.59
2022-07-29T19:40:22.764Z,61.10
2022-07-29T19:42:52.230Z,58.84
2022-07-29T19:45:21.061Z,59.13
2022-07-29T19:47:49.637Z,61.62
2022-07-29T19:50:17.853Z,66.08
2022-07-29T19:52:46.439Z,65.88
2022-07-29T19:55:14.932Z,63.84
2022-07-29T19:57:43.974Z,61.79
2022-07-29T20:00:13.535Z,60.91
2022-07-29T20:02:42.687Z,58.77
2022-07-29T20:05:11.713Z,59.07
2022-07-29T20:07:39.965Z,61.62
2022-07-29T20:10:10.431Z,62.93
2022-07-29T20:12:38.809Z,62.74
2022-07-29T20:15:09.821Z,62.22
2022-07-29T20:17:44.647Z,61.13
2022-07-29T20:20:13.130Z,58.92
2022-07-29T20:22:41.311Z,59.73
2022-07-29T20:25:11.217Z,64.30
2022-07-29T20:27:39.966Z,64.78
2022-07-29T20:30:12.662Z,62.42
2022-07-29T20:32:41.484Z,61.11
2022-07-29T20:35:11.344Z,58.72
2022-07-29T20:37:52.188Z,58.76
2022-07-29T20:40:24.944Z,61.21
2022-07-29T20:42:53.161Z,65.94
2022-07-29T20:45:22.694Z,65.47
2022-07-29T20:47:51.126Z,63.36
2022-07-29T20:50:19.874Z,61.57
2022-07-29T20:52:49.815Z,60.50
2022-07-29T20:55:18.274Z,58.34
2022-07-29T20:57:46.328Z,58.91
2022-07-29T21:00:15.460Z,60.90
2022-07-29T21:02:43.773Z,65.42
2022-07-29T21:05:11.984Z,65.18
2022-07-29T21:07:40.177Z,62.78
2022-07-29T21:10:09.374Z,61.25
2022-07-29T21:12:37.453Z,58.35
2022-07-29T21:15:07.487Z,59.27
2022-07-29T21:17:38.183Z,63.86
2022-07-29T21:20:08.324Z,64.47
2022-07-29T21:22:36.396Z,62.07
2022-07-29T21:25:06.085Z,60.58
2022-07-29T21:27:52.624Z,58.34
2022-07-29T21:30:21.401Z,59.08
2022-07-29T21:32:49.638Z,61.06
2022-07-29T21:36:01.733Z,65.40
2022-07-29T21:38:05.882Z,65.78
2022-07-29T21:40:34.143Z,63.05
2022-07-29T21:43:02.204Z,61.64
2022-07-29T21:45:30.980Z,60.61
2022-07-29T21:47:59.124Z,59.96
2022-07-29T21:50:27.285Z,57.81
2022-07-29T21:52:55.527Z,58.30
2022-07-29T21:55:25.714Z,60.00
2022-07-29T21:57:56.348Z,66.03
2022-07-29T22:00:25.195Z,63.81
2022-07-29T22:02:53.330Z,62.63
2022-07-29T22:05:21.481Z,63.12
2022-07-29T22:07:56.375Z,62.36
2022-07-29T22:10:26.767Z,61.66
2022-07-29T22:12:56.879Z,60.86
2022-07-29T22:15:25.705Z,60.34
2022-07-29T22:17:54.106Z,59.96
2022-07-29T22:20:22.613Z,58.19
2022-07-29T22:22:50.721Z,58.85
2022-07-29T22:25:19.131Z,60.67
2022-07-29T22:27:47.380Z,65.29
2022-07-29T22:30:15.556Z,65.44
2022-07-29T22:32:43.653Z,63.09
2022-07-29T22:35:11.875Z,61.36
2022-07-29T22:37:39.930Z,60.02
2022-07-29T22:40:09.362Z,58.05
2022-07-29T22:42:40.640Z,58.99
2022-07-29T22:45:10.846Z,60.39
2022-07-29T22:47:48.019Z,64.81
2022-07-29T22:50:17.086Z,65.43
2022-07-29T22:52:45.526Z,63.20
2022-07-29T22:55:14.119Z,61.39
2022-07-29T22:57:42.360Z,60.24
2022-07-29T23:00:12.871Z,58.52
2022-07-29T23:02:41.093Z,58.77
2022-07-29T23:05:10.548Z,60.72
2022-07-29T23:07:38.842Z,64.14
2022-07-29T23:10:08.919Z,64.78
2022-07-29T23:12:37.240Z,63.05
2022-07-29T23:15:06.272Z,61.73
2022-07-29T23:17:36.127Z,60.42
2022-07-29T23:20:08.243Z,57.78
2022-07-29T23:22:38.102Z,58.54
2022-07-29T23:25:07.936Z,61.26
2022-07-29T23:27:36.542Z,65.98
2022-07-29T23:30:06.532Z,65.30
2022-07-29T23:32:34.793Z,63.33
2022-07-29T23:35:04.634Z,61.90
2022-07-29T23:37:32.736Z,60.52
2022-07-29T23:40:00.902Z,58.62
2022-07-29T23:42:29.119Z,58.69
2022-07-29T23:44:57.149Z,61.79
2022-07-29T23:47:25.736Z,64.64
2022-07-29T23:49:53.811Z,63.63
2022-07-29T23:52:22.024Z,62.65
2022-07-29T23:54:50.097Z,62.32
2022-07-29T23:57:18.249Z,61.55
2022-07-29T23:59:46.276Z,61.81
